Time;durP1;ratioP1;P1;durP2;ratioP2;P2;SDS_P1;SDS_P2;PMS_P1;PMS_P2;Temp;Humidity;BMP_temperature;BMP_pressure;BME280_temperature;BME280_humidity;BME280_pressure;Samples;Min_cycle;Max_cycle;Signal;HPM_P1;HPM_P2
2023/01/31 00:01:23;;;;;;;17.97;4.80;;;7.10;99.90;;;;;;4908364;29;20435;-77
2023/01/31 00:03:52;;;;;;;13.77;4.17;;;7.00;99.90;;;;;;4908151;29;20580;-77
2023/01/31 00:06:24;;;;;;;21.03;6.43;;;6.90;99.90;;;;;;4909935;29;20435;-77
2023/01/31 00:08:51;;;;;;;21.83;5.93;;;6.90;99.90;;;;;;4907186;29;20491;-76
2023/01/31 00:11:19;;;;;;;18.03;5.23;;;6.90;99.90;;;;;;4916020;29;20439;-77
2023/01/31 00:13:45;;;;;;;18.20;5.33;;;7.00;99.90;;;;;;4918392;29;20467;-75
2023/01/31 00:16:11;;;;;;;12.40;4.30;;;7.00;99.90;;;;;;4919808;29;20775;-74
2023/01/31 00:18:37;;;;;;;27.13;5.53;;;7.00;99.90;;;;;;4919047;29;20532;-74
2023/01/31 00:21:12;;;;;;;16.63;5.53;;;7.00;99.90;;;;;;4900376;29;20527;-79
2023/01/31 00:23:39;;;;;;;16.53;6.77;;;6.90;99.90;;;;;;4915779;29;20266;-78
2023/01/31 00:26:13;;;;;;;27.17;4.60;;;6.90;99.90;;;;;;4908269;29;20822;-78
2023/01/31 00:28:39;;;;;;;35.87;6.20;;;6.80;99.90;;;;;;4910928;29;20427;-78
2023/01/31 00:31:06;;;;;;;21.10;4.80;;;6.90;99.90;;;;;;4909747;29;20834;-78
2023/01/31 00:33:36;;;;;;;18.03;5.20;;;6.90;99.90;;;;;;4907968;29;20482;-78
2023/01/31 00:36:06;;;;;;;24.80;4.80;;;6.80;99.90;;;;;;4912951;29;20442;-79
2023/01/31 00:38:32;;;;;;;19.57;5.13;;;6.80;99.90;;;;;;4915986;29;20440;-78
2023/01/31 00:40:57;;;;;;;17.43;4.77;;;6.80;99.90;;;;;;4908779;29;20432;-75
2023/01/31 00:43:23;;;;;;;15.97;4.70;;;6.70;99.90;;;;;;4907878;29;20218;-76
2023/01/31 00:45:48;;;;;;;22.97;5.40;;;6.70;99.90;;;;;;4918377;29;20184;-76
2023/01/31 00:48:14;;;;;;;14.83;4.07;;;6.70;99.90;;;;;;4916722;29;20183;-75
2023/01/31 00:50:40;;;;;;;19.40;4.70;;;6.80;99.90;;;;;;4914351;29;20203;-76
2023/01/31 00:53:05;;;;;;;21.33;4.97;;;6.80;99.90;;;;;;4912872;29;20247;-76
2023/01/31 00:55:31;;;;;;;14.60;5.20;;;6.80;99.90;;;;;;4911208;29;20196;-76
2023/01/31 00:57:57;;;;;;;25.97;5.40;;;6.70;99.90;;;;;;4909853;29;20607;-77
2023/01/31 01:00:22;;;;;;;20.73;4.87;;;6.80;99.90;;;;;;4912106;29;20324;-77
2023/01/31 01:02:48;;;;;;;20.87;6.37;;;6.70;99.90;;;;;;4913712;29;20188;-78
2023/01/31 01:05:13;;;;;;;14.63;6.17;;;6.80;99.90;;;;;;4915370;29;20191;-75
2023/01/31 01:07:39;;;;;;;19.87;4.70;;;6.70;99.90;;;;;;4916585;29;20192;-75
2023/01/31 01:10:05;;;;;;;17.07;5.53;;;6.70;99.90;;;;;;4918516;29;20195;-75
2023/01/31 01:12:31;;;;;;;15.43;6.50;;;6.70;99.90;;;;;;4917978;29;20686;-75
2023/01/31 01:14:56;;;;;;;16.73;5.57;;;6.70;99.90;;;;;;4916274;29;20490;-74
2023/01/31 01:17:22;;;;;;;19.40;5.10;;;6.70;99.90;;;;;;4914500;29;20275;-74
2023/01/31 01:19:48;;;;;;;14.53;4.63;;;6.80;99.90;;;;;;4912743;29;20193;-72
2023/01/31 01:22:15;;;;;;;13.73;5.43;;;6.80;99.90;;;;;;4910152;29;20187;-73
2023/01/31 01:24:41;;;;;;;15.03;4.80;;;6.80;99.90;;;;;;4909181;29;20620;-75
2023/01/31 01:27:07;;;;;;;13.03;4.50;;;6.80;99.90;;;;;;4911161;29;20535;-75
2023/01/31 01:29:32;;;;;;;27.87;5.47;;;6.70;99.90;;;;;;4912482;29;20478;-75
2023/01/31 01:31:58;;;;;;;23.07;4.87;;;6.70;99.90;;;;;;4914022;29;20232;-75
2023/01/31 01:34:23;;;;;;;20.53;4.83;;;6.80;99.90;;;;;;4915925;29;20211;-75
2023/01/31 01:36:49;;;;;;;19.93;5.20;;;6.70;99.90;;;;;;4900725;29;20267;-75
2023/01/31 01:39:15;;;;;;;23.40;5.90;;;6.70;99.90;;;;;;4900695;29;20223;-75
2023/01/31 01:41:41;;;;;;;17.93;4.60;;;6.70;99.90;;;;;;4902017;29;20184;-75
2023/01/31 01:44:43;;;;;;;22.00;4.80;;;6.70;99.90;;;;;;4906349;29;20494;-75
2023/01/31 01:47:20;;;;;;;21.10;5.53;;;6.80;99.90;;;;;;4905640;29;20290;-75
2023/01/31 01:49:50;;;;;;;19.07;5.77;;;6.80;99.90;;;;;;4910700;29;20471;-76
2023/01/31 01:52:16;;;;;;;20.43;5.63;;;6.80;99.90;;;;;;4909209;29;20428;-76
2023/01/31 01:55:05;;;;;;;16.87;6.80;;;6.80;99.90;;;;;;4910594;29;20484;-76
2023/01/31 01:57:36;;;;;;;19.50;5.27;;;6.80;99.90;;;;;;4904923;29;20435;-80
2023/01/31 02:00:19;;;;;;;18.83;5.60;;;6.80;99.90;;;;;;4914530;29;20451;-82
2023/01/31 02:02:47;;;;;;;16.90;6.23;;;6.80;99.90;;;;;;4901842;29;20462;-82
2023/01/31 02:05:18;;;;;;;14.53;4.43;;;6.70;99.90;;;;;;4907233;29;20444;-82
2023/01/31 02:07:44;;;;;;;15.33;6.10;;;6.70;99.90;;;;;;4909468;29;20505;-82
2023/01/31 02:10:16;;;;;;;23.10;5.53;;;6.80;99.90;;;;;;4923689;29;20459;-82
2023/01/31 02:12:41;;;;;;;19.87;5.13;;;6.80;99.90;;;;;;4912585;29;20232;-82
2023/01/31 02:15:08;;;;;;;11.40;4.00;;;6.70;99.90;;;;;;4919533;29;20519;-82
2023/01/31 02:17:33;;;;;;;19.60;5.47;;;6.60;99.90;;;;;;4911373;29;20247;-82
2023/01/31 02:20:14;;;;;;;10.20;3.90;;;6.70;99.90;;;;;;4909554;29;20448;-82
2023/01/31 02:22:47;;;;;;;14.53;4.70;;;6.70;99.90;;;;;;4906908;29;20595;-82
2023/01/31 02:25:37;;;;;;;15.20;4.77;;;6.60;99.90;;;;;;4912395;29;20531;-74
2023/01/31 02:28:31;;;;;;;16.00;4.93;;;6.70;99.90;;;;;;4902569;29;20500;-78
2023/01/31 02:31:26;;;;;;;12.93;4.63;;;6.70;99.90;;;;;;4903430;29;20480;-77
2023/01/31 02:34:07;;;;;;;17.80;5.10;;;6.80;99.90;;;;;;4916898;29;20971;-78
2023/01/31 02:36:47;;;;;;;13.70;3.83;;;6.70;99.90;;;;;;4915154;29;20530;-78
2023/01/31 02:39:32;;;;;;;12.70;3.90;;;6.70;99.90;;;;;;4913197;29;20851;-78
2023/01/31 02:42:05;;;;;;;20.33;5.83;;;6.60;99.90;;;;;;4904788;29;20438;-78
2023/01/31 02:44:58;;;;;;;18.03;4.60;;;6.60;99.90;;;;;;4908701;29;20440;-78
2023/01/31 02:47:50;;;;;;;9.40;3.07;;;6.70;99.90;;;;;;4907964;29;20789;-78
2023/01/31 02:50:28;;;;;;;8.80;3.47;;;6.60;99.90;;;;;;4905475;29;20438;-79
2023/01/31 02:53:05;;;;;;;23.73;4.67;;;6.60;99.90;;;;;;4912153;29;20478;-79
2023/01/31 02:59:02;;;;;;;24.43;5.13;;;6.60;99.90;;;;;;4899303;29;20797;-72
2023/01/31 03:01:32;;;;;;;10.50;4.47;;;6.70;99.90;;;;;;4898924;29;20432;-77
2023/01/31 03:04:02;;;;;;;20.07;4.30;;;6.60;99.90;;;;;;4900871;29;20436;-76
2023/01/31 03:06:34;;;;;;;16.40;4.67;;;6.70;99.90;;;;;;4902503;29;20464;-76
2023/01/31 03:09:36;;;;;;;17.20;3.80;;;6.70;99.90;;;;;;4904211;29;20428;-76
2023/01/31 03:12:35;;;;;;;18.33;5.27;;;6.70;99.90;;;;;;4908879;29;20443;-76
2023/01/31 03:18:35;;;;;;;12.50;4.43;;;6.70;99.90;;;;;;4909717;29;20873;-77
2023/01/31 03:21:26;;;;;;;22.27;4.30;;;6.70;99.90;;;;;;4912270;29;20431;-77
2023/01/31 03:23:55;;;;;;;21.63;5.90;;;6.60;99.90;;;;;;4900333;29;20504;-77
2023/01/31 03:26:22;;;;;;;15.97;4.30;;;6.50;99.90;;;;;;4898794;29;20424;-77
2023/01/31 03:28:53;;;;;;;20.63;4.40;;;6.50;99.90;;;;;;4881830;29;20596;-78
2023/01/31 03:31:34;;;;;;;15.40;4.53;;;6.60;99.90;;;;;;4900225;29;20483;-79
2023/01/31 03:34:05;;;;;;;28.53;6.03;;;6.60;99.90;;;;;;4902290;29;20468;-77
2023/01/31 03:36:54;;;;;;;19.80;5.20;;;6.60;99.90;;;;;;4903645;29;20442;-77
2023/01/31 03:39:34;;;;;;;9.33;3.63;;;6.60;99.90;;;;;;4888650;29;20476;-77
2023/01/31 05:32:44;;;;;;;17.73;5.77;;;6.50;99.90;;;;;;4925054;29;20498;-80
2023/01/31 05:35:10;;;;;;;14.17;5.47;;;6.50;99.90;;;;;;4902360;29;21069;-77
2023/01/31 05:37:36;;;;;;;20.93;5.17;;;6.40;99.90;;;;;;4921698;29;20471;-77
2023/01/31 05:40:01;;;;;;;19.20;4.67;;;6.50;99.90;;;;;;4926450;29;20545;-74
2023/01/31 05:42:27;;;;;;;23.37;8.50;;;6.50;99.90;;;;;;4930096;29;20638;-77
2023/01/31 05:44:52;;;;;;;17.60;5.67;;;6.50;99.90;;;;;;4918635;29;20235;-78
2023/01/31 05:47:18;;;;;;;12.90;5.77;;;6.40;99.90;;;;;;4921688;29;20226;-76
2023/01/31 05:49:44;;;;;;;17.80;6.23;;;6.50;99.90;;;;;;4931596;29;20191;-75
2023/01/31 05:52:09;;;;;;;15.07;6.20;;;6.50;99.90;;;;;;4932361;29;20194;-75
2023/01/31 05:54:35;;;;;;;15.73;5.53;;;6.60;99.90;;;;;;4918313;29;20996;-78
2023/01/31 05:57:00;;;;;;;21.77;7.40;;;6.60;99.90;;;;;;4919510;29;20703;-78
2023/01/31 05:59:29;;;;;;;17.43;6.10;;;6.60;99.90;;;;;;4918249;29;20218;-77
2023/01/31 06:01:54;;;;;;;24.77;6.53;;;6.50;99.90;;;;;;4916951;29;20190;-77
2023/01/31 06:04:20;;;;;;;15.23;6.00;;;6.50;99.90;;;;;;4917211;29;20450;-76
2023/01/31 06:06:45;;;;;;;20.23;7.20;;;6.50;99.90;;;;;;4915221;29;20269;-76
2023/01/31 06:09:11;;;;;;;20.57;8.73;;;6.50;99.90;;;;;;4925841;29;20185;-77
2023/01/31 06:11:36;;;;;;;20.63;6.97;;;6.70;99.90;;;;;;4929443;29;20183;-78
2023/01/31 06:14:02;;;;;;;16.53;6.30;;;6.70;99.90;;;;;;4925619;29;20219;-78
2023/01/31 06:16:27;;;;;;;13.03;5.97;;;6.60;99.90;;;;;;4922511;29;20367;-77
2023/01/31 06:18:54;;;;;;;24.63;7.30;;;6.60;99.90;;;;;;4916188;29;20538;-76
2023/01/31 06:21:20;;;;;;;18.60;6.27;;;6.60;99.90;;;;;;4917900;29;20227;-77
2023/01/31 06:23:46;;;;;;;20.47;6.73;;;6.60;99.90;;;;;;4919932;29;20522;-77
2023/01/31 06:26:12;;;;;;;23.53;6.20;;;6.60;99.90;;;;;;4934524;29;20203;-77
2023/01/31 06:28:38;;;;;;;14.40;6.13;;;6.50;99.90;;;;;;4933024;29;20946;-77
2023/01/31 06:31:07;;;;;;;15.27;7.33;;;6.60;99.90;;;;;;4931764;29;20454;-77
2023/01/31 06:33:34;;;;;;;19.27;6.73;;;6.60;99.90;;;;;;4928597;29;20229;-79
2023/01/31 06:36:00;;;;;;;16.80;6.93;;;6.60;99.90;;;;;;4923969;29;20526;-78
2023/01/31 06:38:27;;;;;;;19.33;7.83;;;6.60;99.90;;;;;;4927039;29;20641;-78
2023/01/31 06:40:52;;;;;;;26.23;7.10;;;6.60;99.90;;;;;;4931332;29;20187;-77
2023/01/31 06:43:18;;;;;;;15.77;7.30;;;6.70;99.90;;;;;;4911262;29;20935;-77
2023/01/31 06:45:43;;;;;;;11.77;6.07;;;6.70;99.90;;;;;;4911265;29;20608;-78
2023/01/31 06:48:09;;;;;;;18.90;7.07;;;6.70;99.90;;;;;;4929176;29;20224;-78
2023/01/31 06:50:35;;;;;;;20.00;8.03;;;6.70;99.90;;;;;;4926463;29;20183;-80
2023/01/31 06:53:01;;;;;;;21.10;7.13;;;6.70;99.90;;;;;;4928812;29;20783;-78
2023/01/31 06:55:26;;;;;;;10.30;4.97;;;6.80;99.90;;;;;;4925988;29;20218;-78
2023/01/31 06:57:52;;;;;;;25.00;6.70;;;6.80;99.90;;;;;;4925993;29;20258;-77
2023/01/31 07:00:19;;;;;;;12.67;5.13;;;6.90;99.90;;;;;;4932325;29;20202;-78
2023/01/31 07:02:45;;;;;;;16.13;6.20;;;6.90;99.90;;;;;;4927393;29;20192;-78
2023/01/31 07:05:11;;;;;;;24.30;6.47;;;7.00;99.90;;;;;;4921317;29;20448;-78
2023/01/31 07:07:37;;;;;;;9.40;4.70;;;7.10;99.90;;;;;;4921493;29;20843;-78
2023/01/31 07:10:02;;;;;;;16.67;6.20;;;7.10;99.90;;;;;;4925432;29;20194;-77
2023/01/31 07:12:28;;;;;;;11.10;5.70;;;7.10;99.90;;;;;;4928771;29;20658;-76
2023/01/31 07:14:53;;;;;;;18.63;5.97;;;7.10;99.90;;;;;;4926813;29;20594;-77
2023/01/31 07:17:22;;;;;;;18.40;6.13;;;7.10;99.90;;;;;;4924881;29;20265;-77
2023/01/31 07:19:47;;;;;;;18.10;7.70;;;7.20;99.90;;;;;;4925369;29;20745;-77
2023/01/31 07:22:13;;;;;;;15.40;5.93;;;7.20;99.90;;;;;;4927171;29;20443;-76
2023/01/31 07:24:39;;;;;;;19.30;7.10;;;7.20;99.90;;;;;;4930508;29;20180;-77
2023/01/31 07:27:04;;;;;;;15.40;6.00;;;7.20;99.90;;;;;;4928066;29;20291;-77
2023/01/31 07:29:30;;;;;;;14.47;6.00;;;7.10;99.90;;;;;;4930646;29;20183;-77
2023/01/31 07:31:56;;;;;;;23.80;7.00;;;7.20;99.90;;;;;;4928876;29;20235;-79
2023/01/31 07:34:22;;;;;;;19.33;7.37;;;7.20;99.90;;;;;;4925825;29;20222;-79
2023/01/31 07:36:49;;;;;;;15.77;7.53;;;7.10;99.90;;;;;;4919555;29;20428;-78
2023/01/31 07:39:14;;;;;;;16.30;5.90;;;7.00;99.90;;;;;;4923381;29;20191;-79
2023/01/31 07:41:40;;;;;;;21.60;7.97;;;7.00;99.90;;;;;;4929674;29;20938;-75
2023/01/31 07:44:07;;;;;;;17.20;6.53;;;7.00;99.90;;;;;;4930269;29;20552;-79
2023/01/31 07:46:33;;;;;;;22.93;8.10;;;7.10;99.90;;;;;;4932145;29;20702;-76
2023/01/31 07:48:59;;;;;;;19.47;7.90;;;7.00;99.90;;;;;;4929694;29;20843;-75
2023/01/31 07:51:25;;;;;;;21.97;6.47;;;7.10;99.90;;;;;;4931776;29;20423;-75
2023/01/31 07:53:50;;;;;;;23.40;7.33;;;7.10;99.90;;;;;;4927904;29;20533;-75
2023/01/31 07:56:19;;;;;;;24.73;8.87;;;7.20;99.90;;;;;;4930685;29;20526;-74
2023/01/31 07:58:46;;;;;;;23.80;7.10;;;7.10;99.90;;;;;;4927321;29;20592;-75
2023/01/31 08:04:10;;;;;;;12.63;7.20;;;7.20;99.90;;;;;;4922636;29;20435;-75
2023/01/31 08:06:37;;;;;;;18.63;6.70;;;7.10;99.90;;;;;;4904816;29;20443;-75
2023/01/31 08:09:03;;;;;;;24.63;7.07;;;7.20;99.90;;;;;;4927593;29;20839;-76
2023/01/31 08:11:28;;;;;;;19.57;6.50;;;7.30;99.90;;;;;;4925925;29;20543;-78
2023/01/31 08:13:54;;;;;;;16.13;7.30;;;7.20;99.90;;;;;;4927056;29;20238;-78
2023/01/31 08:16:20;;;;;;;18.03;5.80;;;7.10;99.90;;;;;;4929349;29;20222;-77
2023/01/31 08:18:47;;;;;;;18.47;7.67;;;7.20;99.90;;;;;;4930631;29;20199;-78
2023/01/31 08:21:13;;;;;;;27.30;8.20;;;7.00;99.90;;;;;;4930301;29;20525;-78
2023/01/31 08:23:40;;;;;;;40.37;8.13;;;7.00;99.90;;;;;;4930154;29;20451;-77
2023/01/31 08:26:14;;;;;;;13.67;7.47;;;7.10;99.90;;;;;;4923301;29;20443;-76
2023/01/31 08:28:40;;;;;;;22.73;7.37;;;7.10;99.90;;;;;;4922360;29;20454;-74
2023/01/31 08:31:06;;;;;;;19.80;6.23;;;7.20;99.90;;;;;;4924985;29;20474;-78
2023/01/31 08:33:32;;;;;;;19.83;6.20;;;7.10;99.90;;;;;;4927894;29;20490;-78
2023/01/31 08:36:16;;;;;;;22.33;6.03;;;7.00;99.90;;;;;;4934236;29;20816;-78
2023/01/31 08:38:43;;;;;;;26.37;6.73;;;7.00;99.90;;;;;;4931072;29;20682;-80
2023/01/31 08:41:09;;;;;;;12.33;6.20;;;7.10;99.90;;;;;;4920177;29;20476;-80
2023/01/31 08:43:36;;;;;;;18.17;6.40;;;7.10;99.90;;;;;;4929995;29;20434;-82
2023/01/31 08:46:02;;;;;;;15.50;5.90;;;7.10;99.90;;;;;;4930874;29;20438;-81
2023/01/31 08:48:28;;;;;;;9.70;5.50;;;7.10;99.90;;;;;;4926119;29;20861;-81
2023/01/31 08:50:53;;;;;;;18.73;6.17;;;7.10;99.90;;;;;;4922973;29;20468;-81
2023/01/31 08:53:19;;;;;;;21.50;8.53;;;7.20;99.90;;;;;;4930300;29;20318;-80
2023/01/31 08:55:44;;;;;;;21.87;6.70;;;7.20;99.90;;;;;;4925351;29;20218;-80
2023/01/31 08:58:10;;;;;;;16.27;6.93;;;7.20;99.90;;;;;;4927400;29;20226;-81
2023/01/31 09:00:35;;;;;;;16.40;8.47;;;7.20;99.90;;;;;;4924038;29;20184;-81
2023/01/31 09:03:01;;;;;;;21.83;6.10;;;7.20;99.90;;;;;;4924808;29;20179;-80
2023/01/31 09:05:28;;;;;;;13.20;4.60;;;7.20;99.90;;;;;;4930659;29;20701;-82
2023/01/31 09:07:54;;;;;;;10.13;4.70;;;7.10;99.90;;;;;;4931422;29;20734;-80
2023/01/31 09:10:20;;;;;;;15.07;5.90;;;6.90;99.90;;;;;;4930181;29;20525;-81
2023/01/31 09:12:46;;;;;;;12.67;5.23;;;6.90;99.90;;;;;;4930102;29;20636;-83
2023/01/31 09:15:12;;;;;;;11.03;4.83;;;7.00;99.90;;;;;;4931386;29;20560;-80
2023/01/31 09:17:39;;;;;;;14.00;6.43;;;6.90;99.90;;;;;;4933074;29;20430;-81
2023/01/31 09:20:06;;;;;;;16.07;5.60;;;6.90;99.90;;;;;;4921866;29;20439;-81
2023/01/31 09:22:33;;;;;;;14.60;5.63;;;7.00;99.90;;;;;;4926282;29;20522;-83
2023/01/31 09:24:59;;;;;;;20.27;6.07;;;7.00;99.90;;;;;;4927614;29;20431;-85
2023/01/31 09:27:26;;;;;;;10.50;4.83;;;7.00;99.90;;;;;;4926874;29;20523;-85
2023/01/31 09:29:52;;;;;;;13.87;4.80;;;7.10;99.90;;;;;;4925266;29;20436;-80
2023/01/31 09:32:18;;;;;;;8.80;4.33;;;7.00;99.90;;;;;;4928794;29;20833;-80
2023/01/31 09:34:45;;;;;;;16.40;4.73;;;7.00;99.90;;;;;;4929225;29;20226;-80
2023/01/31 09:37:11;;;;;;;17.67;5.67;;;6.90;99.90;;;;;;4933874;29;20950;-76
2023/01/31 09:39:36;;;;;;;17.50;5.90;;;6.90;99.90;;;;;;4935662;29;20471;-78
2023/01/31 09:42:25;;;;;;;12.73;5.70;;;6.90;99.90;;;;;;4932567;29;20171;-78
2023/01/31 09:45:12;;;;;;;9.80;4.50;;;7.00;99.90;;;;;;4927633;29;20600;-73
2023/01/31 09:47:50;;;;;;;9.07;5.13;;;7.00;99.90;;;;;;4929246;29;20434;-74
2023/01/31 09:50:49;;;;;;;15.50;4.73;;;6.90;99.90;;;;;;4915438;29;20471;-77
2023/01/31 09:53:20;;;;;;;13.03;4.07;;;7.00;99.90;;;;;;4898517;29;20679;-76
2023/01/31 09:56:08;;;;;;;17.10;5.00;;;7.00;99.90;;;;;;4930904;29;20457;-77
2023/01/31 09:58:36;;;;;;;15.00;5.80;;;7.00;99.90;;;;;;4933360;29;20427;-76
2023/01/31 10:01:22;;;;;;;17.40;5.63;;;7.00;99.90;;;;;;4933078;29;20443;-77
2023/01/31 10:04:11;;;;;;;12.97;5.33;;;7.20;99.90;;;;;;4935520;29;20465;-76
2023/01/31 10:07:02;;;;;;;9.87;4.10;;;7.10;99.90;;;;;;4932485;29;20513;-76
2023/01/31 10:09:45;;;;;;;15.70;5.60;;;7.10;99.90;;;;;;4931525;29;20436;-76
2023/01/31 10:12:12;;;;;;;11.93;3.40;;;7.20;99.90;;;;;;4931791;29;20482;-75
2023/01/31 10:14:46;;;;;;;10.57;4.07;;;7.10;99.90;;;;;;4930880;29;20479;-82
2023/01/31 10:17:31;;;;;;;17.30;4.10;;;7.10;99.90;;;;;;4930577;29;20946;-79
2023/01/31 10:20:20;;;;;;;10.53;3.90;;;7.10;99.90;;;;;;4930550;29;20483;-80
2023/01/31 10:22:49;;;;;;;11.57;4.43;;;7.00;99.90;;;;;;4921812;29;20541;-78
2023/01/31 10:25:31;;;;;;;13.60;3.97;;;7.10;99.90;;;;;;4932226;29;20427;-78
2023/01/31 10:28:09;;;;;;;13.50;4.70;;;7.00;99.90;;;;;;4933374;29;20793;-78
2023/01/31 10:30:55;;;;;;;16.00;4.40;;;7.10;99.90;;;;;;4934407;29;20797;-78
2023/01/31 10:33:44;;;;;;;14.80;5.37;;;7.10;99.90;;;;;;4933066;29;20443;-78
2023/01/31 10:36:26;;;;;;;12.47;4.60;;;7.10;99.90;;;;;;4934983;29;20442;-79
2023/01/31 10:39:28;;;;;;;16.40;4.53;;;7.20;99.90;;;;;;4928384;29;20423;-80
2023/01/31 10:42:11;;;;;;;11.20;4.33;;;7.20;99.90;;;;;;4926329;29;20529;-78
2023/01/31 10:44:36;;;;;;;13.60;4.63;;;7.20;99.90;;;;;;4926812;29;20478;-79
2023/01/31 10:47:15;;;;;;;11.73;4.27;;;7.20;99.90;;;;;;4931487;29;20451;-79
2023/01/31 10:49:45;;;;;;;12.03;4.43;;;7.20;99.90;;;;;;4930977;29;20187;-81
2023/01/31 10:52:16;;;;;;;6.20;3.80;;;7.20;99.90;;;;;;4929309;29;20435;-81
2023/01/31 10:55:17;;;;;;;17.67;6.10;;;7.20;99.90;;;;;;4924015;29;20462;-81
2023/01/31 10:57:42;;;;;;;19.60;4.70;;;7.30;99.90;;;;;;4924331;29;20858;-83
2023/01/31 11:00:19;;;;;;;12.33;4.23;;;7.40;99.90;;;;;;4927211;29;20444;-82
2023/01/31 11:02:44;;;;;;;10.93;4.80;;;7.40;99.90;;;;;;4926093;29;20190;-82
2023/01/31 11:05:17;;;;;;;10.50;4.27;;;7.30;99.90;;;;;;4931738;29;20949;-82
2023/01/31 11:07:42;;;;;;;8.87;4.37;;;7.40;99.90;;;;;;4925088;29;20207;-81
2023/01/31 11:10:29;;;;;;;8.00;3.97;;;7.30;99.90;;;;;;4923143;29;20436;-80
2023/01/31 11:12:56;;;;;;;11.03;4.97;;;7.40;99.90;;;;;;4916638;29;20191;-80
2023/01/31 11:15:28;;;;;;;10.50;3.70;;;7.30;99.90;;;;;;4924462;29;20569;-81
2023/01/31 11:17:58;;;;;;;10.67;4.50;;;7.30;99.90;;;;;;4929966;29;20431;-80
2023/01/31 11:20:28;;;;;;;15.90;4.40;;;7.40;99.90;;;;;;4927537;29;20449;-80
2023/01/31 11:22:56;;;;;;;12.03;3.83;;;7.40;99.90;;;;;;4925790;29;20531;-81
2023/01/31 11:25:23;;;;;;;9.63;3.43;;;7.40;99.90;;;;;;4928093;29;21142;-80
2023/01/31 11:27:53;;;;;;;8.10;4.60;;;7.40;99.90;;;;;;4926221;29;20446;-80
2023/01/31 11:30:29;;;;;;;7.53;4.10;;;7.40;99.90;;;;;;4923447;29;20440;-80
2023/01/31 11:32:55;;;;;;;13.17;5.93;;;7.50;99.90;;;;;;4930094;29;20484;-80
2023/01/31 11:35:24;;;;;;;10.83;5.70;;;7.50;99.90;;;;;;4929034;29;20483;-80
2023/01/31 11:38:00;;;;;;;11.37;4.67;;;7.60;99.90;;;;;;4904525;29;20435;-80
2023/01/31 11:40:33;;;;;;;16.83;5.87;;;7.60;99.90;;;;;;4920770;29;20517;-79
2023/01/31 11:43:00;;;;;;;16.63;5.27;;;7.60;99.90;;;;;;4918930;29;20431;-79
2023/01/31 11:45:37;;;;;;;15.90;5.53;;;7.60;99.90;;;;;;4931377;29;20485;-79
2023/01/31 11:48:39;;;;;;;19.77;5.87;;;7.60;99.90;;;;;;4925941;29;20819;-79
2023/01/31 11:51:05;;;;;;;12.50;6.30;;;7.70;99.90;;;;;;4912743;29;20517;-79
2023/01/31 11:53:38;;;;;;;16.20;6.30;;;7.70;99.90;;;;;;4928141;29;20474;-80
2023/01/31 11:56:16;;;;;;;14.27;6.40;;;7.70;99.90;;;;;;4930411;29;20461;-81
2023/01/31 11:58:45;;;;;;;11.80;5.83;;;7.70;99.90;;;;;;4932032;29;20852;-80
2023/01/31 12:01:20;;;;;;;16.27;6.10;;;7.80;99.90;;;;;;4929624;29;20435;-80
2023/01/31 12:03:55;;;;;;;14.50;5.90;;;7.80;99.90;;;;;;4928340;29;20434;-81
2023/01/31 12:06:38;;;;;;;10.73;5.70;;;7.80;99.90;;;;;;4925321;29;20443;-80
2023/01/31 12:09:18;;;;;;;16.30;7.00;;;7.70;99.90;;;;;;4914337;29;20446;-81
2023/01/31 12:11:55;;;;;;;21.47;8.80;;;7.80;99.90;;;;;;4930909;29;20435;-78
2023/01/31 12:14:23;;;;;;;15.60;7.30;;;7.80;99.90;;;;;;4932497;29;21061;-81
2023/01/31 12:16:53;;;;;;;15.97;7.80;;;7.90;99.90;;;;;;4930513;29;20434;-79
2023/01/31 12:19:34;;;;;;;9.43;5.87;;;7.90;99.90;;;;;;4932197;29;20436;-68
2023/01/31 12:22:20;;;;;;;24.83;7.50;;;7.80;99.90;;;;;;4932850;29;20459;-70
2023/01/31 12:25:04;;;;;;;11.57;6.00;;;7.70;99.90;;;;;;4928209;29;20450;-71
2023/01/31 12:27:37;;;;;;;16.20;7.73;;;7.60;99.90;;;;;;4928692;29;20436;-72
2023/01/31 12:30:14;;;;;;;17.87;8.10;;;7.70;99.90;;;;;;4929335;29;20444;-74
2023/01/31 12:32:51;;;;;;;14.03;7.50;;;7.70;99.90;;;;;;4920365;29;20583;-72
2023/01/31 12:35:22;;;;;;;13.30;7.67;;;7.60;99.90;;;;;;4920925;29;20526;-72
2023/01/31 12:37:51;;;;;;;12.93;7.43;;;7.60;99.90;;;;;;4924817;29;20446;-72
2023/01/31 12:40:43;;;;;;;14.90;7.70;;;7.70;99.90;;;;;;4919640;29;20463;-73
2023/01/31 12:43:19;;;;;;;17.13;7.33;;;7.70;99.90;;;;;;4928673;29;20490;-72
2023/01/31 12:45:53;;;;;;;14.67;7.47;;;7.70;99.90;;;;;;4928119;29;20446;-72
2023/01/31 12:48:56;;;;;;;20.83;8.80;;;7.80;99.90;;;;;;4931025;29;21013;-73
2023/01/31 12:51:40;;;;;;;20.40;7.60;;;7.90;99.90;;;;;;4931555;29;20493;-73
2023/01/31 12:54:21;;;;;;;14.60;7.73;;;7.70;99.90;;;;;;4929482;29;20486;-71
2023/01/31 12:57:05;;;;;;;12.23;7.60;;;7.80;99.90;;;;;;4929711;29;20486;-72
2023/01/31 12:59:34;;;;;;;16.87;8.87;;;7.80;99.90;;;;;;4929167;29;20447;-72
2023/01/31 13:02:21;;;;;;;20.63;8.17;;;7.70;99.90;;;;;;4924202;29;20463;-72
2023/01/31 13:05:01;;;;;;;11.70;7.77;;;7.70;99.90;;;;;;4929353;29;20530;-72
2023/01/31 13:07:44;;;;;;;17.90;8.80;;;7.70;99.90;;;;;;4928410;29;20572;-72
2023/01/31 13:10:28;;;;;;;12.50;7.63;;;7.70;99.90;;;;;;4930174;29;20439;-71
2023/01/31 13:12:57;;;;;;;14.73;8.60;;;7.80;99.90;;;;;;4927291;29;20428;-72
2023/01/31 13:15:46;;;;;;;18.20;7.93;;;7.80;99.90;;;;;;4909677;29;20825;-72
2023/01/31 13:18:13;;;;;;;20.20;9.13;;;7.80;99.90;;;;;;4927173;29;20427;-73
2023/01/31 13:20:47;;;;;;;18.93;8.50;;;7.80;99.90;;;;;;4929326;29;20501;-72
2023/01/31 13:23:21;;;;;;;23.30;11.33;;;7.90;99.90;;;;;;4928746;29;20452;-72
2023/01/31 13:25:53;;;;;;;16.50;10.60;;;7.90;99.90;;;;;;4921822;29;20448;-73
2023/01/31 13:28:24;;;;;;;20.20;10.90;;;8.00;99.90;;;;;;4929107;29;20437;-72
2023/01/31 13:30:52;;;;;;;19.10;10.70;;;8.00;99.90;;;;;;4930722;29;20486;-72
2023/01/31 13:33:24;;;;;;;19.93;9.50;;;8.00;99.90;;;;;;4923005;29;20482;-73
2023/01/31 13:36:08;;;;;;;12.50;10.17;;;8.00;99.90;;;;;;4924510;29;20440;-75
2023/01/31 13:38:40;;;;;;;16.00;10.63;;;8.00;99.90;;;;;;4928771;29;20577;-72
2023/01/31 13:41:11;;;;;;;24.03;10.70;;;7.90;99.90;;;;;;4928989;29;20446;-70
2023/01/31 13:43:38;;;;;;;16.33;9.87;;;8.00;99.90;;;;;;4929731;29;20446;-72
2023/01/31 13:46:06;;;;;;;19.07;10.70;;;8.10;99.90;;;;;;4930730;29;20432;-73
2023/01/31 13:48:46;;;;;;;20.00;10.40;;;8.00;99.90;;;;;;4918413;29;20963;-72
2023/01/31 13:51:19;;;;;;;20.90;11.73;;;7.90;99.90;;;;;;4924221;29;21020;-74
2023/01/31 13:54:07;;;;;;;16.37;11.00;;;7.90;99.90;;;;;;4922016;29;20490;-73
2023/01/31 13:56:35;;;;;;;17.97;10.17;;;8.00;99.90;;;;;;4920180;29;20947;-73
2023/01/31 13:59:01;;;;;;;11.50;9.13;;;7.90;99.90;;;;;;4927174;29;20442;-73
2023/01/31 14:01:31;;;;;;;15.80;11.03;;;8.00;99.90;;;;;;4925879;29;20434;-73
2023/01/31 14:04:14;;;;;;;14.80;10.17;;;7.90;99.90;;;;;;4927401;29;20448;-73
2023/01/31 14:06:55;;;;;;;16.10;9.20;;;8.00;99.90;;;;;;4931573;29;20435;-73
2023/01/31 14:09:30;;;;;;;13.60;9.20;;;8.00;99.90;;;;;;4926682;29;20443;-73
2023/01/31 14:12:09;;;;;;;12.83;8.97;;;8.10;99.90;;;;;;4928378;29;20463;-73
2023/01/31 14:14:38;;;;;;;13.53;10.07;;;8.00;99.90;;;;;;4913883;29;20492;-73
2023/01/31 14:17:28;;;;;;;14.53;10.17;;;7.90;99.90;;;;;;4928149;29;20441;-73
2023/01/31 14:19:54;;;;;;;14.00;8.53;;;8.00;99.90;;;;;;4923257;29;20470;-73
2023/01/31 14:22:24;;;;;;;21.70;10.10;;;8.00;99.90;;;;;;4919965;29;20856;-73
2023/01/31 14:24:55;;;;;;;12.13;8.67;;;8.00;99.90;;;;;;4921133;29;20195;-73
2023/01/31 14:27:23;;;;;;;13.23;9.40;;;7.90;99.90;;;;;;4916318;29;20544;-72
2023/01/31 14:30:04;;;;;;;17.07;10.53;;;7.90;99.90;;;;;;4930170;29;20809;-72
2023/01/31 14:32:41;;;;;;;11.20;9.10;;;7.70;99.90;;;;;;4929198;29;20499;-73
2023/01/31 14:35:12;;;;;;;18.13;9.83;;;7.80;99.90;;;;;;4932831;29;20517;-73
2023/01/31 14:38:02;;;;;;;19.43;11.33;;;7.80;99.90;;;;;;4928853;29;20527;-73
2023/01/31 14:40:32;;;;;;;13.47;9.90;;;7.90;99.90;;;;;;4928655;29;20832;-75
2023/01/31 14:43:06;;;;;;;14.00;10.20;;;8.00;99.90;;;;;;4926232;29;20434;-73
2023/01/31 14:45:41;;;;;;;11.60;9.70;;;7.90;99.90;;;;;;4925593;29;20468;-74
2023/01/31 14:48:25;;;;;;;11.77;10.43;;;7.90;99.90;;;;;;4928304;29;20529;-73
2023/01/31 14:50:53;;;;;;;15.70;10.40;;;7.80;99.90;;;;;;4928267;29;20982;-74
2023/01/31 14:53:31;;;;;;;16.10;12.10;;;8.00;99.90;;;;;;4929709;29;20439;-74
2023/01/31 14:56:15;;;;;;;13.50;11.60;;;7.90;99.90;;;;;;4925869;29;20941;-74
2023/01/31 14:58:45;;;;;;;15.20;11.30;;;7.80;99.90;;;;;;4925417;29;20427;-74
2023/01/31 15:01:12;;;;;;;15.43;12.30;;;7.80;99.90;;;;;;4923896;29;20443;-74
2023/01/31 15:03:53;;;;;;;17.20;12.70;;;7.90;99.90;;;;;;4928686;29;20870;-74
2023/01/31 15:06:32;;;;;;;15.63;12.23;;;7.90;99.90;;;;;;4932490;29;20434;-74
2023/01/31 15:09:25;;;;;;;15.43;12.90;;;7.90;99.90;;;;;;4930352;29;20419;-74
2023/01/31 15:11:55;;;;;;;19.43;12.83;;;7.90;99.90;;;;;;4933128;29;20529;-74